createdAt,value
2023-04-17T00:02:12.131Z,27.47
2023-04-17T00:04:42.101Z,25.43
2023-04-17T00:07:09.504Z,24.10
2023-04-17T00:09:37.490Z,25.50
2023-04-17T00:12:13.154Z,23.20
2023-04-17T00:14:39.876Z,21.43
2023-04-17T00:17:06.797Z,22.30
2023-04-17T00:19:51.178Z,22.43
2023-04-17T00:22:17.891Z,22.17
2023-04-17T00:24:53.470Z,23.10
2023-04-17T00:27:20.451Z,22.17
2023-04-17T00:29:47.210Z,21.70
2023-04-17T00:32:13.918Z,22.13
2023-04-17T00:34:47.262Z,21.33
2023-04-17T00:37:14.023Z,21.23
2023-04-17T00:39:40.761Z,21.40
2023-04-17T00:42:14.692Z,21.23
2023-04-17T00:44:41.405Z,21.47
2023-04-17T00:47:08.758Z,22.37
2023-04-17T00:49:36.605Z,22.00
2023-04-17T00:52:06.755Z,20.73
2023-04-17T00:54:33.657Z,21.80
2023-04-17T00:57:07.877Z,20.27
2023-04-17T00:59:36.244Z,19.73
2023-04-17T01:02:06.204Z,21.27
2023-04-17T01:04:45.708Z,21.20
2023-04-17T01:07:12.502Z,21.73
2023-04-17T01:09:39.214Z,20.30
2023-04-17T01:12:35.385Z,20.40
2023-04-17T01:15:02.581Z,19.80
2023-04-17T01:17:30.007Z,20.70
2023-04-17T01:19:57.432Z,21.10
2023-04-17T01:22:24.212Z,21.07
2023-04-17T01:24:55.721Z,20.30
2023-04-17T01:27:24.905Z,20.73
2023-04-17T01:29:51.575Z,18.53
2023-04-17T01:32:19.030Z,20.87
2023-04-17T01:34:51.146Z,19.70
2023-04-17T01:37:18.643Z,19.37
2023-04-17T01:39:45.299Z,18.80
2023-04-17T01:42:12.882Z,19.07
2023-04-17T01:44:39.536Z,20.30
2023-04-17T01:47:12.373Z,19.10
2023-04-17T01:49:39.100Z,19.43
2023-04-17T01:52:08.124Z,18.80
2023-04-17T01:54:43.496Z,20.30
2023-04-17T01:57:10.382Z,18.80
2023-04-17T01:59:37.255Z,18.80
2023-04-17T02:02:22.429Z,18.90
2023-04-17T02:05:00.869Z,18.73
2023-04-17T02:07:27.616Z,19.23
2023-04-17T02:09:54.340Z,20.33
2023-04-17T02:12:31.277Z,19.50
2023-04-17T02:15:01.171Z,18.63
2023-04-17T02:17:31.064Z,18.73
2023-04-17T02:20:01.295Z,18.07
2023-04-17T02:22:30.525Z,19.10
2023-04-17T02:24:58.083Z,18.50
2023-04-17T02:27:29.901Z,18.83
2023-04-17T02:29:56.661Z,18.00
2023-04-17T02:32:23.477Z,19.07
2023-04-17T02:34:50.310Z,18.10
2023-04-17T02:37:17.399Z,18.50
2023-04-17T02:39:47.151Z,19.70
2023-04-17T02:42:13.817Z,17.73
2023-04-17T02:44:41.452Z,18.50
2023-04-17T02:47:08.412Z,19.10
2023-04-17T02:49:38.508Z,19.37
2023-04-17T02:52:07.085Z,19.63
2023-04-17T02:54:37.006Z,18.33
2023-04-17T02:57:05.700Z,18.93
2023-04-17T02:59:37.862Z,17.90
2023-04-17T03:02:05.680Z,18.77
2023-04-17T03:04:39.540Z,19.00
2023-04-17T03:07:10.423Z,18.40
2023-04-17T03:09:38.724Z,17.47
2023-04-17T03:12:05.975Z,17.70
2023-04-17T03:14:35.766Z,17.57
2023-04-17T03:17:05.075Z,17.40
2023-04-17T03:19:39.459Z,18.13
2023-04-17T03:22:10.029Z,17.67
2023-04-17T03:24:38.560Z,17.00
2023-04-17T03:27:07.807Z,19.07
2023-04-17T03:29:38.595Z,17.50
2023-04-17T03:32:09.672Z,18.90
2023-04-17T03:34:37.331Z,19.93
2023-04-17T03:37:10.479Z,17.73
2023-04-17T03:39:37.703Z,17.90
2023-04-17T03:42:08.160Z,18.13
2023-04-17T03:44:42.725Z,20.27
2023-04-17T03:47:11.379Z,19.27
2023-04-17T03:49:41.411Z,19.23
2023-04-17T03:52:17.139Z,20.03
2023-04-17T03:54:45.737Z,20.50
2023-04-17T03:57:13.217Z,20.20
2023-04-17T04:00:08.464Z,20.60
2023-04-17T04:02:45.144Z,19.33
2023-04-17T04:05:13.884Z,19.63
2023-04-17T04:07:41.152Z,18.00
2023-04-17T04:10:09.017Z,19.20
2023-04-17T04:12:44.622Z,19.10
2023-04-17T04:18:10.400Z,18.87
2023-04-17T04:20:37.381Z,18.80
2023-04-17T04:23:16.950Z,18.20
2023-04-17T04:25:44.788Z,18.93
2023-04-17T04:28:23.802Z,18.80
2023-04-17T04:30:54.268Z,17.77
2023-04-17T04:33:28.030Z,19.37
2023-04-17T04:36:01.657Z,18.47
2023-04-17T04:38:30.922Z,17.57
2023-04-17T04:41:14.957Z,18.33
2023-04-17T04:43:42.416Z,18.73
2023-04-17T04:46:10.665Z,18.80
2023-04-17T04:48:42.821Z,19.30
2023-04-17T04:51:13.171Z,18.10
2023-04-17T04:53:43.554Z,16.77
2023-04-17T04:56:12.908Z,18.00
2023-04-17T04:58:39.883Z,18.77
2023-04-17T05:01:07.281Z,18.33
2023-04-17T05:03:45.842Z,18.40
2023-04-17T05:06:18.571Z,19.20
2023-04-17T05:08:49.312Z,18.43
2023-04-17T05:11:16.661Z,18.87
2023-04-17T05:13:43.639Z,19.20
2023-04-17T05:16:24.495Z,18.57
2023-04-17T05:18:51.574Z,19.00
2023-04-17T05:21:26.136Z,18.20
2023-04-17T05:23:54.780Z,18.60
2023-04-17T05:26:22.626Z,18.30
2023-04-17T05:28:50.320Z,20.07
2023-04-17T05:31:22.482Z,19.33
2023-04-17T05:33:49.432Z,19.37
2023-04-17T05:36:16.562Z,18.57
2023-04-17T05:38:46.176Z,18.57
2023-04-17T05:41:14.290Z,18.80
2023-04-17T05:43:43.165Z,17.97
2023-04-17T05:46:10.473Z,19.77
2023-04-17T05:48:37.813Z,19.17
2023-04-17T05:51:05.165Z,18.70
2023-04-17T05:53:33.616Z,17.73
2023-04-17T05:56:02.462Z,19.27
2023-04-17T05:58:39.295Z,19.10
2023-04-17T06:01:07.381Z,18.13
2023-04-17T06:03:35.416Z,19.20
2023-04-17T08:42:07.993Z,14.80
2023-04-17T08:44:50.082Z,13.73
2023-04-17T08:47:46.648Z,14.33
2023-04-17T09:24:46.454Z,14.80
2023-04-17T09:59:27.755Z,12.00
2023-04-17T10:01:57.955Z,11.70
2023-04-17T10:04:27.725Z,12.60
2023-04-17T10:06:57.638Z,12.13
2023-04-17T10:09:28.275Z,12.70
2023-04-17T10:11:56.320Z,12.20
2023-04-17T10:14:29.675Z,12.80
2023-04-17T10:16:59.899Z,11.97
2023-04-17T10:19:53.903Z,11.97
2023-04-17T10:22:29.741Z,11.70
2023-04-17T10:25:15.623Z,12.30
2023-04-17T10:28:02.291Z,11.90
2023-04-17T10:31:24.413Z,12.47
2023-04-17T11:13:00.919Z,11.37
2023-04-17T11:38:39.332Z,12.50
2023-04-17T11:41:08.985Z,11.73
2023-04-17T11:43:56.340Z,11.83
2023-04-17T11:46:41.163Z,10.70
2023-04-17T11:49:22.521Z,11.67
2023-04-17T11:52:15.744Z,11.23
2023-04-17T11:55:00.003Z,12.27
2023-04-17T11:57:30.475Z,11.97
2023-04-17T12:00:31.214Z,12.13
2023-04-17T12:03:48.351Z,11.57
2023-04-17T12:06:34.335Z,11.70
2023-04-17T12:09:47.764Z,11.00
2023-04-17T12:13:28.626Z,10.37
2023-04-17T12:20:19.193Z,10.97
2023-04-17T12:22:46.143Z,11.00
2023-04-17T12:26:35.152Z,11.73
2023-04-17T12:50:54.326Z,12.63
2023-04-17T13:03:16.304Z,12.03
2023-04-17T13:05:45.686Z,12.40
2023-04-17T13:08:16.389Z,11.43
2023-04-17T13:10:43.132Z,11.23
2023-04-17T13:13:13.716Z,12.50
2023-04-17T13:19:08.942Z,10.57
2023-04-17T13:21:56.377Z,10.13
2023-04-17T13:24:23.133Z,10.30
2023-04-17T13:26:59.007Z,10.00
2023-04-17T13:30:41.644Z,9.20
2023-04-17T13:33:29.792Z,10.00
2023-04-17T13:36:00.652Z,10.20
2023-04-17T13:38:37.686Z,10.10
2023-04-17T13:41:27.696Z,9.80
2023-04-17T13:47:16.554Z,9.90
2023-04-17T13:49:49.451Z,8.87
2023-04-17T13:52:16.582Z,8.90
2023-04-17T13:54:58.162Z,9.37
2023-04-17T13:58:08.107Z,10.30
2023-04-17T14:01:29.496Z,10.27
2023-04-17T14:07:35.390Z,9.77
2023-04-17T14:10:17.289Z,10.20
2023-04-17T14:12:56.305Z,9.50
2023-04-17T14:15:28.283Z,10.27
2023-04-17T14:18:14.734Z,10.47
2023-04-17T14:20:42.441Z,10.30
2023-04-17T14:23:12.578Z,10.13
2023-04-17T14:25:43.031Z,10.27
2023-04-17T14:28:12.627Z,9.63
2023-04-17T14:30:45.592Z,10.00
2023-04-17T14:33:31.517Z,10.20
2023-04-17T14:35:58.316Z,10.10
2023-04-17T14:38:31.341Z,9.87
2023-04-17T14:41:31.867Z,9.07
2023-04-17T14:48:20.267Z,10.10
2023-04-17T14:50:57.965Z,10.67
2023-04-17T14:53:25.450Z,10.60
2023-04-17T14:56:26.471Z,9.83
2023-04-17T14:58:58.723Z,9.80
2023-04-17T15:01:27.077Z,10.93
2023-04-17T15:04:04.310Z,11.50
2023-04-17T15:06:32.166Z,10.80
2023-04-17T15:09:01.790Z,10.37
2023-04-17T15:11:31.097Z,10.80
2023-04-17T15:14:00.421Z,10.40
2023-04-17T15:16:27.883Z,10.70
2023-04-17T15:19:00.461Z,10.40
2023-04-17T15:21:27.660Z,10.57
2023-04-17T15:23:58.496Z,10.30
2023-04-17T15:26:34.664Z,10.87
2023-04-17T15:29:03.609Z,10.23
2023-04-17T15:31:30.787Z,10.30
2023-04-17T15:34:01.315Z,10.77
2023-04-17T15:36:45.106Z,11.43
2023-04-17T15:39:26.111Z,9.97
2023-04-17T15:41:58.556Z,10.70
2023-04-17T15:44:46.935Z,9.70
2023-04-17T15:47:39.973Z,9.47
2023-04-17T15:55:54.604Z,9.40
2023-04-17T15:58:36.088Z,9.00
2023-04-17T16:01:10.099Z,9.40
2023-04-17T16:04:06.611Z,8.20
2023-04-17T16:06:50.303Z,8.23
2023-04-17T16:09:39.820Z,7.47
2023-04-17T16:12:17.754Z,7.00
2023-04-17T16:15:00.387Z,7.53
2023-04-17T16:17:30.289Z,7.40
2023-04-17T16:20:07.556Z,8.13
2023-04-17T16:25:31.237Z,8.23
2023-04-17T16:28:05.479Z,8.03
2023-04-17T16:30:44.830Z,8.63
2023-04-17T16:33:12.017Z,8.50
2023-04-17T16:35:57.868Z,8.27
2023-04-17T16:38:36.710Z,7.80
2023-04-17T16:41:23.534Z,8.40
2023-04-17T16:43:56.820Z,8.93
2023-04-17T16:46:40.211Z,8.97
2023-04-17T16:49:39.444Z,8.80
2023-04-17T16:52:11.711Z,8.57
2023-04-17T16:54:40.101Z,8.10
2023-04-17T16:57:11.114Z,7.73
2023-04-17T16:59:40.501Z,7.63
2023-04-17T17:02:10.605Z,7.77
2023-04-17T17:04:40.633Z,7.20
2023-04-17T17:07:38.057Z,7.30
2023-04-17T17:10:20.927Z,7.70
2023-04-17T17:13:08.393Z,7.10
2023-04-17T17:15:48.909Z,6.60
2023-04-17T17:18:35.071Z,7.00
2023-04-17T17:21:03.084Z,7.77
2023-04-17T17:23:51.208Z,7.10
2023-04-17T17:26:25.119Z,7.53
2023-04-17T17:28:57.955Z,7.50
2023-04-17T17:42:25.650Z,7.70
2023-04-17T17:44:59.767Z,7.97
2023-04-17T17:47:34.298Z,6.60
2023-04-17T17:50:06.820Z,6.97
2023-04-17T17:52:46.097Z,7.37
2023-04-17T17:55:36.197Z,7.47
2023-04-17T17:58:16.186Z,7.10
2023-04-17T18:01:50.400Z,7.00
2023-04-17T18:03:54.304Z,6.90
2023-04-17T18:06:23.226Z,7.33
2023-04-17T18:08:52.952Z,6.87
2023-04-17T18:11:24.894Z,6.87
2023-04-17T18:13:57.677Z,6.63
2023-04-17T18:19:10.552Z,6.50
2023-04-17T18:21:50.171Z,7.03
2023-04-17T18:24:22.259Z,7.43
2023-04-17T18:27:14.981Z,7.30
2023-04-17T18:29:45.604Z,7.40
2023-04-17T18:32:12.839Z,7.57
2023-04-17T18:34:42.165Z,7.30
2023-04-17T18:37:17.862Z,7.33
2023-04-17T18:40:12.875Z,6.60
2023-04-17T18:42:49.301Z,6.70
2023-04-17T18:45:32.819Z,7.27
2023-04-17T18:48:08.963Z,7.13
2023-04-17T18:50:38.440Z,6.83
2023-04-17T18:53:05.286Z,7.03
2023-04-17T18:55:38.059Z,6.73
2023-04-17T18:58:06.291Z,7.50
2023-04-17T19:00:33.435Z,6.13
2023-04-17T19:03:00.364Z,7.20
2023-04-17T19:05:27.286Z,7.10
2023-04-17T19:07:55.458Z,7.00
2023-04-17T19:10:27.302Z,6.70
2023-04-17T19:12:54.169Z,6.60
2023-04-17T19:15:23.607Z,6.47
2023-04-17T19:17:50.680Z,6.70
2023-04-17T19:20:17.722Z,7.30
2023-04-17T19:22:44.598Z,6.80
2023-04-17T19:25:11.393Z,6.00
2023-04-17T19:27:40.218Z,6.47
2023-04-17T19:30:08.143Z,7.00
2023-04-17T19:32:35.060Z,6.63
2023-04-17T19:35:01.938Z,6.33
2023-04-17T19:37:28.873Z,7.13
2023-04-17T19:39:56.794Z,6.83
2023-04-17T19:42:27.263Z,7.50
2023-04-17T19:44:53.998Z,7.60
2023-04-17T19:47:20.784Z,7.50
2023-04-17T19:49:47.833Z,7.30
2023-04-17T19:52:15.472Z,6.57
2023-04-17T19:54:45.458Z,7.87
2023-04-17T19:57:12.259Z,6.87
2023-04-17T19:59:39.153Z,7.43
2023-04-17T20:02:06.792Z,7.40
2023-04-17T20:04:33.656Z,7.30
2023-04-17T20:07:02.984Z,8.03
2023-04-17T20:09:31.514Z,8.00
2023-04-17T20:11:59.382Z,7.40
2023-04-17T20:14:26.643Z,7.60
2023-04-17T20:16:53.313Z,7.70
2023-04-17T20:19:20.599Z,7.00
2023-04-17T20:21:47.747Z,7.10
2023-04-17T20:24:16.286Z,6.23
2023-04-17T20:26:46.362Z,7.00
2023-04-17T20:29:13.388Z,7.67
2023-04-17T20:31:40.423Z,7.30
2023-04-17T20:34:07.171Z,6.70
2023-04-17T20:36:33.848Z,6.53
2023-04-17T20:39:00.536Z,5.70
2023-04-17T20:41:29.156Z,5.90
2023-04-17T20:43:58.109Z,5.03
2023-04-17T20:46:25.944Z,5.40
2023-04-17T20:48:52.768Z,5.20
2023-04-17T20:51:20.969Z,5.20
2023-04-17T20:53:47.887Z,6.03
2023-04-17T20:56:14.813Z,5.30
2023-04-17T20:58:41.624Z,5.60
2023-04-17T21:01:09.290Z,6.57
2023-04-17T21:03:36.049Z,6.37
2023-04-17T21:06:02.888Z,6.00
2023-04-17T21:08:29.598Z,6.07
2023-04-17T21:10:56.370Z,5.97
2023-04-17T21:13:23.514Z,5.80
2023-04-17T21:15:50.206Z,6.30
2023-04-17T21:18:16.856Z,5.53
2023-04-17T21:20:43.876Z,5.80
2023-04-17T21:23:11.493Z,5.90
2023-04-17T21:25:38.487Z,5.60
2023-04-17T21:28:06.114Z,5.43
2023-04-17T21:30:33.624Z,6.23
2023-04-17T21:33:00.736Z,5.87
2023-04-17T21:35:30.243Z,5.63
2023-04-17T21:37:57.366Z,6.00
2023-04-17T21:40:26.403Z,5.60
2023-04-17T21:43:00.026Z,5.23
2023-04-17T21:45:27.267Z,5.33
2023-04-17T21:47:54.444Z,5.87
2023-04-17T21:50:23.338Z,6.07
2023-04-17T21:52:50.800Z,6.50
2023-04-17T21:55:20.187Z,5.90
2023-04-17T21:57:46.844Z,5.80
2023-04-17T22:00:14.513Z,5.67
2023-04-17T22:02:41.406Z,5.73
2023-04-17T22:05:08.281Z,6.20
2023-04-17T22:07:43.961Z,5.73
2023-04-17T22:10:20.677Z,6.27
2023-04-17T22:12:47.288Z,5.77
2023-04-17T22:15:13.971Z,6.20
2023-04-17T22:17:41.239Z,6.47
2023-04-17T22:20:08.664Z,6.33
2023-04-17T22:22:41.069Z,6.50
2023-04-17T22:25:08.096Z,6.10
2023-04-17T22:27:34.827Z,6.27
2023-04-17T22:30:01.648Z,6.77
2023-04-17T22:32:28.330Z,6.70
2023-04-17T22:34:55.326Z,6.83
2023-04-17T22:37:22.150Z,6.40
2023-04-17T22:39:49.665Z,6.73
2023-04-17T22:42:16.599Z,6.80
2023-04-17T22:44:43.413Z,6.63
2023-04-17T22:47:15.035Z,6.80
2023-04-17T22:49:42.574Z,6.73
2023-04-17T22:52:09.344Z,7.33
2023-04-17T22:54:36.199Z,6.60
2023-04-17T22:57:03.113Z,6.33
2023-04-17T22:59:30.132Z,6.80
2023-04-17T23:01:57.206Z,6.40
2023-04-17T23:04:24.159Z,6.10
2023-04-17T23:06:54.415Z,6.33
2023-04-17T23:09:22.073Z,6.63
2023-04-17T23:11:49.124Z,6.47
2023-04-17T23:14:16.135Z,6.00
2023-04-17T23:16:45.476Z,6.70
2023-04-17T23:19:12.363Z,6.90
2023-04-17T23:21:39.099Z,6.10
2023-04-17T23:24:08.129Z,5.60
2023-04-17T23:26:34.826Z,6.03
2023-04-17T23:29:01.504Z,5.27
2023-04-17T23:31:28.528Z,6.10
2023-04-17T23:33:55.887Z,5.63
2023-04-17T23:36:24.863Z,5.37
2023-04-17T23:38:51.887Z,5.33
2023-04-17T23:41:18.517Z,5.20
2023-04-17T23:43:45.311Z,5.40
2023-04-17T23:46:12.348Z,5.10
2023-04-17T23:48:41.343Z,5.53
2023-04-17T23:51:08.992Z,5.43
2023-04-17T23:53:35.670Z,5.50
2023-04-17T23:56:02.381Z,5.40
2023-04-17T23:58:29.577Z,5.10
